createdAt,value
2023-04-15T00:00:57.739Z,1.15
2023-04-15T00:03:24.684Z,1.18
2023-04-15T00:05:53.232Z,1.15
2023-04-15T00:08:20.023Z,1.07
2023-04-15T00:10:46.883Z,1.10
2023-04-15T00:13:13.820Z,0.97
2023-04-15T00:15:41.099Z,0.91
2023-04-15T00:18:07.959Z,0.98
2023-04-15T00:20:34.953Z,1.00
2023-04-15T00:23:03.419Z,0.97
2023-04-15T00:25:30.216Z,1.05
2023-04-15T00:27:57.024Z,1.08
2023-04-15T00:30:23.791Z,1.00
2023-04-15T00:32:50.753Z,1.00
2023-04-15T00:35:17.742Z,1.04
2023-04-15T00:37:46.226Z,1.10
2023-04-15T00:40:18.542Z,1.04
2023-04-15T00:42:45.284Z,1.03
2023-04-15T00:45:12.124Z,1.07
2023-04-15T00:47:40.999Z,1.09
2023-04-15T00:50:09.477Z,1.05
2023-04-15T00:52:36.639Z,0.99
2023-04-15T00:55:03.927Z,1.17
2023-04-15T00:57:32.958Z,1.24
2023-04-15T01:00:00.847Z,1.27
2023-04-15T01:02:27.677Z,1.25
2023-04-15T01:04:54.822Z,1.21
2023-04-15T01:07:21.589Z,1.31
2023-04-15T01:09:48.503Z,1.28
2023-04-15T01:12:16.951Z,1.25
2023-04-15T01:14:45.211Z,1.26
2023-04-15T01:17:12.022Z,1.30
2023-04-15T01:19:38.911Z,1.45
2023-04-15T01:22:05.727Z,1.41
2023-04-15T01:24:32.874Z,1.57
2023-04-15T01:27:01.412Z,1.58
2023-04-15T01:29:28.316Z,1.57
2023-04-15T01:31:56.381Z,1.65
2023-04-15T01:34:23.610Z,1.75
2023-04-15T01:36:50.537Z,1.71
2023-04-15T01:39:17.309Z,1.68
2023-04-15T01:41:44.172Z,1.70
2023-04-15T01:44:12.373Z,1.68
2023-04-15T01:46:39.191Z,1.52
2023-04-15T01:49:06.024Z,1.62
2023-04-15T01:51:32.735Z,1.59
2023-04-15T01:53:59.456Z,1.52
2023-04-15T01:56:26.381Z,1.60
2023-04-15T01:58:53.221Z,1.52
2023-04-15T02:01:21.440Z,1.48
2023-04-15T02:03:48.652Z,1.41
2023-04-15T02:06:15.555Z,1.31
2023-04-15T02:08:42.351Z,1.23
2023-04-15T02:11:09.132Z,1.19
2023-04-15T02:13:36.141Z,1.27
2023-04-15T02:16:03.576Z,1.27
2023-04-15T02:18:31.741Z,1.24
2023-04-15T02:20:59.011Z,1.27
2023-04-15T02:23:25.983Z,1.24
2023-04-15T02:25:53.872Z,1.17
2023-04-15T02:28:21.143Z,1.12
2023-04-15T02:30:48.495Z,1.01
2023-04-15T02:33:15.300Z,1.04
2023-04-15T02:35:45.914Z,1.05
2023-04-15T02:38:12.860Z,1.02
2023-04-15T02:40:39.721Z,0.96
2023-04-15T02:43:06.560Z,0.91
2023-04-15T02:45:33.382Z,0.88
2023-04-15T02:48:00.146Z,0.85
2023-04-15T02:50:27.025Z,0.84
2023-04-15T02:52:55.243Z,0.84
2023-04-15T02:55:22.276Z,0.86
2023-04-15T02:57:49.084Z,0.95
2023-04-15T03:00:16.047Z,0.98
2023-04-15T03:02:43.197Z,0.93
2023-04-15T03:05:12.761Z,0.93
2023-04-15T03:07:39.657Z,0.89
2023-04-15T03:10:09.286Z,0.91
2023-04-15T03:12:36.081Z,0.88
2023-04-15T03:15:03.018Z,0.84
2023-04-15T03:17:29.850Z,0.84
2023-04-15T03:19:56.711Z,0.84
2023-04-15T03:22:23.553Z,0.83
2023-04-15T03:24:50.343Z,0.82
2023-04-15T03:27:18.521Z,0.80
2023-04-15T03:29:45.266Z,0.78
2023-04-15T03:32:12.013Z,0.70
2023-04-15T03:34:38.720Z,0.71
2023-04-15T03:37:05.670Z,0.71
2023-04-15T03:39:32.517Z,0.70
2023-04-15T03:41:59.296Z,0.70
2023-04-15T03:44:28.152Z,0.72
2023-04-15T03:46:55.017Z,0.69
2023-04-15T03:49:21.860Z,0.65
2023-04-15T03:51:48.620Z,0.59
2023-04-15T03:54:15.461Z,0.64
2023-04-15T03:56:42.332Z,0.69
2023-04-15T03:59:09.396Z,0.69
2023-04-15T04:01:37.559Z,0.60
2023-04-15T04:04:04.675Z,0.65
2023-04-15T04:06:31.655Z,0.64
2023-04-15T04:08:58.533Z,0.62
2023-04-15T04:11:25.330Z,0.61
2023-04-15T04:13:53.300Z,0.65
2023-04-15T04:16:20.452Z,0.64
2023-04-15T04:18:48.678Z,0.67
2023-04-15T04:21:15.544Z,0.69
2023-04-15T04:23:42.522Z,0.66
2023-04-15T04:26:09.250Z,0.62
2023-04-15T04:28:36.044Z,0.61
2023-04-15T04:31:02.867Z,0.60
2023-04-15T04:33:29.723Z,0.61
2023-04-15T04:35:57.858Z,0.59
2023-04-15T04:38:24.768Z,0.64
2023-04-15T04:40:51.665Z,0.65
2023-04-15T04:43:18.444Z,0.66
2023-04-15T04:45:45.454Z,0.64
2023-04-15T04:48:12.222Z,0.67
2023-04-15T04:50:39.083Z,0.67
2023-04-15T04:53:07.207Z,0.68
2023-04-15T04:55:33.975Z,0.72
2023-04-15T04:58:00.770Z,0.69
2023-04-15T05:00:28.017Z,0.65
2023-04-15T05:02:54.989Z,0.75
2023-04-15T05:05:21.964Z,0.74
2023-04-15T05:07:48.699Z,0.78
2023-04-15T05:10:17.035Z,0.76
2023-04-15T05:12:43.991Z,0.73
2023-04-15T05:15:11.325Z,0.75
2023-04-15T05:17:38.568Z,0.77
2023-04-15T05:20:06.942Z,0.80
2023-04-15T05:22:34.118Z,0.86
2023-04-15T05:25:01.000Z,0.86
2023-04-15T05:27:29.438Z,0.87
2023-04-15T05:29:56.248Z,0.84
2023-04-15T05:32:23.129Z,0.90
2023-04-15T05:34:50.007Z,0.92
2023-04-15T05:37:16.791Z,0.94
2023-04-15T05:39:43.592Z,0.98
2023-04-15T05:42:10.355Z,0.94
2023-04-15T05:44:38.565Z,1.00
2023-04-15T05:47:05.418Z,1.01
2023-04-15T05:49:32.286Z,1.01
2023-04-15T05:51:59.253Z,1.12
2023-04-15T05:54:26.009Z,1.24
2023-04-15T05:56:52.831Z,1.28
2023-04-15T05:59:19.599Z,1.35
2023-04-15T06:01:47.751Z,1.48
2023-04-15T06:04:14.705Z,1.52
2023-04-15T06:06:41.493Z,1.54
2023-04-15T06:09:08.360Z,1.61
2023-04-15T06:11:35.138Z,1.67
2023-04-15T06:14:02.050Z,1.70
2023-04-15T06:16:28.872Z,1.84
2023-04-15T06:18:57.008Z,1.86
2023-04-15T06:21:24.001Z,1.95
2023-04-15T06:23:50.846Z,1.94
2023-04-15T06:26:17.629Z,1.98
2023-04-15T06:28:44.471Z,1.98
2023-04-15T06:31:11.209Z,1.97
2023-04-15T06:33:38.014Z,2.00
2023-04-15T06:36:08.825Z,1.97
2023-04-15T06:38:35.586Z,2.01
2023-04-15T06:41:03.518Z,2.03
2023-04-15T06:43:30.452Z,2.05
2023-04-15T06:45:57.323Z,2.01
2023-04-15T06:48:24.518Z,2.03
2023-04-15T06:50:51.345Z,2.05
2023-04-15T06:53:19.521Z,2.06
2023-04-15T06:55:46.308Z,2.16
2023-04-15T06:58:13.135Z,2.18
2023-04-15T07:00:39.946Z,2.18
2023-04-15T07:03:06.783Z,2.23
2023-04-15T07:05:33.908Z,2.23
2023-04-15T07:08:00.889Z,2.27
2023-04-15T07:10:29.226Z,2.23
2023-04-15T07:12:56.568Z,2.27
2023-04-15T07:15:23.304Z,2.28
2023-04-15T07:17:50.115Z,2.29
2023-04-15T07:20:17.110Z,2.33
2023-04-15T07:22:43.912Z,2.36
2023-04-15T07:25:10.733Z,2.38
2023-04-15T07:27:38.876Z,2.41
2023-04-15T07:30:07.477Z,2.49
2023-04-15T07:32:34.397Z,2.60
2023-04-15T07:35:01.317Z,2.69
2023-04-15T07:37:28.164Z,2.71
2023-04-15T07:39:55.058Z,2.77
2023-04-15T07:42:22.173Z,2.87
2023-04-15T07:44:51.085Z,2.92
2023-04-15T07:47:17.998Z,3.07
2023-04-15T07:49:44.834Z,3.20
2023-04-15T07:52:11.659Z,3.40
2023-04-15T07:54:38.383Z,3.55
2023-04-15T07:57:05.167Z,3.65
2023-04-15T07:59:31.963Z,3.77
2023-04-15T08:02:00.391Z,3.91
2023-04-15T08:04:27.329Z,3.98
2023-04-15T08:06:54.271Z,4.08
2023-04-15T08:09:21.193Z,4.16
2023-04-15T08:11:49.607Z,4.25
2023-04-15T08:14:16.511Z,4.37
2023-04-15T08:16:43.322Z,4.50
2023-04-15T08:19:11.499Z,4.60
2023-04-15T08:21:38.266Z,4.69
2023-04-15T08:24:06.196Z,4.80
2023-04-15T08:26:32.948Z,4.92
2023-04-15T08:28:59.808Z,5.04
2023-04-15T08:31:29.404Z,5.05
2023-04-15T08:33:57.269Z,5.19
2023-04-15T08:36:25.514Z,5.24
2023-04-15T08:38:52.321Z,5.28
2023-04-15T08:41:22.545Z,5.30
2023-04-15T08:43:53.115Z,5.31
2023-04-15T08:46:21.068Z,5.35
2023-04-15T08:48:48.706Z,5.39
2023-04-15T08:51:16.171Z,5.40
2023-04-15T08:53:45.185Z,5.42
2023-04-15T08:56:15.389Z,5.39
2023-04-15T08:58:43.694Z,5.38
2023-04-15T09:01:12.527Z,5.37
2023-04-15T09:03:39.905Z,5.40
2023-04-15T09:08:49.454Z,5.45
2023-04-15T09:11:17.106Z,5.44
2023-04-15T09:13:44.817Z,5.40
2023-04-15T09:16:11.575Z,5.30
2023-04-15T09:18:39.045Z,5.29
2023-04-15T09:21:06.851Z,5.34
2023-04-15T09:23:33.795Z,5.38
2023-04-15T09:26:03.646Z,5.36
2023-04-15T09:28:31.075Z,5.36
2023-04-15T09:30:58.533Z,5.38
2023-04-15T09:33:25.800Z,5.40
2023-04-15T09:36:00.496Z,5.42
2023-04-15T09:38:27.953Z,5.44
2023-04-15T09:40:55.259Z,5.41
2023-04-15T09:43:23.738Z,5.33
2023-04-15T09:45:52.004Z,5.19
2023-04-15T09:48:21.086Z,5.18
2023-04-15T09:50:51.808Z,5.32
2023-04-15T09:53:20.143Z,5.28
2023-04-15T09:55:50.292Z,5.31
2023-04-15T09:58:21.766Z,5.33
2023-04-15T10:00:52.355Z,5.38
2023-04-15T10:03:21.253Z,5.41
2023-04-15T10:05:52.570Z,5.45
2023-04-15T10:08:23.425Z,5.51
2023-04-15T10:10:50.382Z,5.53
2023-04-15T10:13:18.587Z,5.51
2023-04-15T10:15:52.036Z,5.54
2023-04-15T10:18:21.547Z,5.54
2023-04-15T10:20:49.006Z,5.59
2023-04-15T10:23:16.286Z,5.63
2023-04-15T10:25:43.598Z,5.70
2023-04-15T10:28:11.303Z,5.75
2023-04-15T10:30:38.850Z,5.81
2023-04-15T10:33:10.261Z,5.89
2023-04-15T10:35:39.397Z,5.98
2023-04-15T10:38:36.087Z,6.05
2023-04-15T10:41:14.019Z,6.13
2023-04-15T10:43:45.861Z,6.21
2023-04-15T10:46:12.638Z,6.25
2023-04-15T10:48:47.467Z,6.27
2023-04-15T10:51:14.549Z,6.33
2023-04-15T10:53:42.429Z,6.36
2023-04-15T10:56:10.303Z,6.40
2023-04-15T10:58:42.037Z,6.43
2023-04-15T11:01:08.880Z,6.51
2023-04-15T11:03:38.687Z,6.53
2023-04-15T11:06:07.697Z,6.51
2023-04-15T11:08:54.420Z,6.47
2023-04-15T11:11:21.352Z,6.46
2023-04-15T11:13:49.177Z,6.44
2023-04-15T11:16:16.227Z,6.44
2023-04-15T11:18:53.110Z,6.45
2023-04-15T11:21:25.356Z,6.44
2023-04-15T11:23:52.255Z,6.39
2023-04-15T11:26:19.015Z,6.37
2023-04-15T11:28:46.632Z,6.35
2023-04-15T11:31:16.676Z,6.31
2023-04-15T11:33:47.714Z,6.13
2023-04-15T11:36:14.663Z,6.13
2023-04-15T11:38:47.611Z,5.99
2023-04-15T11:41:14.533Z,5.88
2023-04-15T11:43:41.394Z,5.66
2023-04-15T11:46:08.250Z,5.83
2023-04-15T11:48:36.579Z,5.79
2023-04-15T11:51:04.848Z,5.82
2023-04-15T11:53:39.509Z,5.95
2023-04-15T11:56:08.873Z,5.58
2023-04-15T11:58:37.192Z,5.72
2023-04-15T12:01:04.668Z,5.86
2023-04-15T12:03:36.859Z,5.97
2023-04-15T12:06:22.475Z,6.08
2023-04-15T12:08:56.309Z,6.20
2023-04-15T12:11:30.590Z,6.25
2023-04-15T12:13:58.074Z,6.32
2023-04-15T12:16:25.665Z,6.37
2023-04-15T12:18:53.253Z,6.39
2023-04-15T12:21:21.111Z,6.43
2023-04-15T12:23:51.835Z,6.44
2023-04-15T12:26:19.030Z,6.43
2023-04-15T12:28:47.139Z,6.49
2023-04-15T12:31:14.685Z,6.46
2023-04-15T12:33:41.825Z,6.43
2023-04-15T12:36:08.809Z,6.37
2023-04-15T12:38:35.584Z,6.42
2023-04-15T12:41:02.425Z,6.28
2023-04-15T12:43:29.269Z,6.33
2023-04-15T12:45:57.387Z,6.06
2023-04-15T12:48:24.202Z,5.88
2023-04-15T12:50:51.097Z,5.68
2023-04-15T12:53:18.206Z,5.60
2023-04-15T12:55:45.020Z,5.69
2023-04-15T12:58:11.851Z,5.67
2023-04-15T13:00:38.989Z,5.74
2023-04-15T13:03:07.494Z,5.54
2023-04-15T13:05:34.458Z,5.73
2023-04-15T13:08:01.313Z,5.81
2023-04-15T13:10:28.127Z,5.82
2023-04-15T13:12:54.942Z,5.86
2023-04-15T13:15:21.778Z,5.93
2023-04-15T13:17:48.816Z,5.97
2023-04-15T13:20:17.046Z,5.76
2023-04-15T13:22:43.809Z,5.97
2023-04-15T13:25:10.673Z,6.02
2023-04-15T13:27:37.477Z,6.09
2023-04-15T13:30:05.087Z,6.04
2023-04-15T13:32:32.074Z,5.96
2023-04-15T13:34:58.913Z,6.10
2023-04-15T13:37:28.364Z,6.01
2023-04-15T13:39:55.496Z,5.95
2023-04-15T13:42:22.841Z,5.64
2023-04-15T13:44:50.227Z,5.58
2023-04-15T13:47:17.202Z,5.55
2023-04-15T13:49:44.278Z,5.50
2023-04-15T13:52:11.409Z,5.57
2023-04-15T13:54:39.633Z,5.50
2023-04-15T13:57:06.952Z,5.41
2023-04-15T13:59:34.195Z,5.40
2023-04-15T14:02:02.178Z,5.28
2023-04-15T14:04:29.149Z,5.11
2023-04-15T14:06:56.498Z,4.90
2023-04-15T14:09:26.213Z,4.98
2023-04-15T14:11:54.708Z,5.12
2023-04-15T14:14:21.558Z,5.02
2023-04-15T14:16:48.433Z,4.96
2023-04-15T14:19:15.272Z,4.96
2023-04-15T14:21:42.087Z,5.02
2023-04-15T14:24:08.850Z,5.02
2023-04-15T14:26:35.666Z,4.90
2023-04-15T14:29:04.107Z,4.92
2023-04-15T14:31:31.064Z,4.93
2023-04-15T14:33:57.841Z,4.97
2023-04-15T14:36:24.641Z,5.05
2023-04-15T14:38:51.514Z,5.04
2023-04-15T14:41:18.247Z,5.04
2023-04-15T14:43:45.085Z,5.16
2023-04-15T14:46:13.280Z,5.26
2023-04-15T14:48:40.053Z,5.38
2023-04-15T14:51:06.913Z,5.39
2023-04-15T14:53:36.025Z,5.42
2023-04-15T14:56:03.042Z,5.31
2023-04-15T14:58:29.880Z,5.26
2023-04-15T15:00:56.661Z,5.16
2023-04-15T15:03:25.159Z,5.13
2023-04-15T15:05:52.237Z,5.06
2023-04-15T15:08:19.103Z,5.08
2023-04-15T15:10:49.452Z,5.03
2023-04-15T15:13:17.850Z,4.92
2023-04-15T15:15:45.139Z,4.90
2023-04-15T15:18:11.954Z,4.93
2023-04-15T15:20:40.423Z,5.02
2023-04-15T15:23:07.522Z,5.12
2023-04-15T15:25:34.531Z,5.24
2023-04-15T15:28:01.337Z,5.37
2023-04-15T15:30:28.477Z,5.42
2023-04-15T15:32:55.444Z,5.46
2023-04-15T15:35:22.254Z,5.53
2023-04-15T15:37:50.508Z,5.46
2023-04-15T15:40:17.579Z,5.57
2023-04-15T15:42:44.385Z,5.43
2023-04-15T15:45:11.695Z,5.12
2023-04-15T15:47:38.609Z,5.34
2023-04-15T15:50:06.539Z,5.42
2023-04-15T15:52:33.304Z,5.44
2023-04-15T15:55:01.501Z,5.41
2023-04-15T15:57:28.353Z,5.42
2023-04-15T16:00:09.867Z,5.60
2023-04-15T16:02:59.630Z,5.79
2023-04-15T16:05:25.251Z,6.06
2023-04-15T16:07:52.060Z,6.26
2023-04-15T16:10:20.162Z,6.27
2023-04-15T16:12:46.953Z,6.44
2023-04-15T16:15:13.684Z,6.55
2023-04-15T16:17:40.546Z,6.61
2023-04-15T16:20:08.410Z,6.62
2023-04-15T16:22:35.608Z,6.64
2023-04-15T16:25:02.968Z,6.66
2023-04-15T16:27:31.182Z,6.74
2023-04-15T16:29:57.910Z,6.74
2023-04-15T16:32:24.771Z,6.74
2023-04-15T16:34:52.523Z,6.69
2023-04-15T16:37:20.360Z,6.66
2023-04-15T16:39:47.407Z,6.61
2023-04-15T16:42:14.153Z,6.59
2023-04-15T16:44:42.334Z,6.54
2023-04-15T16:47:09.167Z,6.50
2023-04-15T16:49:35.892Z,6.48
2023-04-15T16:52:02.757Z,6.39
2023-04-15T16:54:29.585Z,6.33
2023-04-15T16:56:56.518Z,6.28
2023-04-15T16:59:23.503Z,6.20
2023-04-15T17:01:51.766Z,6.14
2023-04-15T17:04:18.789Z,6.10
2023-04-15T17:06:45.583Z,6.02
2023-04-15T17:09:12.400Z,5.94
2023-04-15T17:11:39.307Z,5.88
2023-04-15T17:14:07.172Z,5.79
2023-04-15T17:16:33.928Z,5.85
2023-04-15T17:19:02.139Z,5.64
2023-04-15T17:21:28.975Z,5.54
2023-04-15T17:23:55.748Z,5.18
2023-04-15T17:26:22.511Z,4.88
2023-04-15T17:28:49.478Z,4.70
2023-04-15T17:31:16.414Z,4.66
2023-04-15T17:34:00.523Z,4.63
2023-04-15T17:36:33.335Z,4.42
2023-04-15T17:39:00.121Z,4.11
2023-04-15T17:41:27.082Z,4.13
2023-04-15T17:43:53.921Z,4.00
2023-04-15T17:46:20.770Z,3.89
2023-04-15T17:48:47.633Z,3.76
2023-04-15T17:51:14.350Z,3.71
2023-04-15T17:53:42.906Z,3.48
2023-04-15T17:56:09.672Z,3.28
2023-04-15T17:58:36.438Z,3.15
2023-04-15T18:01:03.212Z,3.10
2023-04-15T18:03:30.158Z,3.11
2023-04-15T18:05:57.122Z,3.00
2023-04-15T18:08:23.906Z,2.95
2023-04-15T18:10:52.034Z,2.83
2023-04-15T18:13:21.444Z,2.75
2023-04-15T18:15:48.341Z,2.72
2023-04-15T18:18:15.129Z,2.60
2023-04-15T18:20:41.962Z,2.54
2023-04-15T18:23:08.744Z,2.51
2023-04-15T18:25:36.122Z,2.42
2023-04-15T18:28:04.304Z,2.21
2023-04-15T18:30:31.059Z,2.24
2023-04-15T18:32:57.896Z,2.30
2023-04-15T18:35:24.717Z,2.32
2023-04-15T18:37:52.287Z,2.26
2023-04-15T18:40:20.264Z,2.24
2023-04-15T18:42:47.029Z,2.20
2023-04-15T18:45:15.599Z,2.22
2023-04-15T18:47:42.531Z,2.17
2023-04-15T18:50:09.772Z,2.14
2023-04-15T18:52:36.694Z,2.08
2023-04-15T18:55:03.726Z,2.03
2023-04-15T18:57:35.757Z,2.03
2023-04-15T19:00:05.375Z,2.00
2023-04-15T19:02:33.664Z,1.96
2023-04-15T19:05:00.530Z,2.01
2023-04-15T19:07:27.338Z,1.96
2023-04-15T19:09:54.146Z,1.89
2023-04-15T19:12:20.974Z,1.92
2023-04-15T19:14:47.815Z,1.87
2023-04-15T19:17:14.845Z,1.95
2023-04-15T19:19:42.960Z,2.00
2023-04-15T19:22:09.926Z,1.97
2023-04-15T19:24:36.687Z,2.01
2023-04-15T19:27:03.516Z,2.04
2023-04-15T19:29:30.455Z,1.86
2023-04-15T19:31:57.321Z,1.92
2023-04-15T19:34:24.058Z,1.99
2023-04-15T19:36:52.261Z,2.00
2023-04-15T19:39:19.098Z,1.80
2023-04-15T19:41:45.861Z,1.96
2023-04-15T19:44:12.615Z,1.95
2023-04-15T19:46:39.695Z,1.90
2023-04-15T19:49:07.035Z,1.85
2023-04-15T19:51:34.055Z,1.78
2023-04-15T19:54:02.157Z,1.70
2023-04-15T19:56:28.952Z,1.72
2023-04-15T19:58:55.675Z,1.76
2023-04-15T20:01:22.862Z,1.80
2023-04-15T20:03:49.752Z,1.80
2023-04-15T20:06:16.592Z,1.79
2023-04-15T20:08:43.375Z,1.83
2023-04-15T20:11:12.379Z,1.79
2023-04-15T20:13:41.993Z,1.75
2023-04-15T20:16:09.029Z,1.62
2023-04-15T20:18:35.859Z,1.58
2023-04-15T20:21:02.720Z,1.67
2023-04-15T20:23:29.537Z,1.69
2023-04-15T20:25:56.260Z,1.71
2023-04-15T20:28:24.455Z,1.63
2023-04-15T20:30:51.198Z,1.47
2023-04-15T20:33:17.908Z,1.47
2023-04-15T20:35:44.691Z,1.46
2023-04-15T20:38:11.446Z,1.49
2023-04-15T20:40:39.476Z,1.51
2023-04-15T20:43:07.690Z,1.56
2023-04-15T20:45:35.909Z,1.54
2023-04-15T20:48:02.705Z,1.57
2023-04-15T20:50:29.512Z,1.60
2023-04-15T20:52:56.535Z,1.59
2023-04-15T20:55:23.430Z,1.60
2023-04-15T20:57:50.272Z,1.60
2023-04-15T21:00:17.034Z,1.62
2023-04-15T21:02:45.330Z,1.58
2023-04-15T21:05:13.300Z,1.44
2023-04-15T21:07:40.126Z,1.37
2023-04-15T21:10:07.542Z,1.35
2023-04-15T21:12:34.299Z,1.32
2023-04-15T21:15:01.121Z,1.24
2023-04-15T21:17:27.867Z,1.09
2023-04-15T21:19:55.984Z,1.05
2023-04-15T21:22:22.710Z,1.00
2023-04-15T21:24:49.522Z,1.00
2023-04-15T21:27:16.256Z,0.96
2023-04-15T21:29:43.030Z,0.93
2023-04-15T21:32:10.295Z,0.83
2023-04-15T21:34:37.250Z,0.79
2023-04-15T21:37:05.404Z,0.86
2023-04-15T21:39:32.306Z,0.84
2023-04-15T21:41:59.067Z,0.90
2023-04-15T21:44:25.925Z,0.89
2023-04-15T21:46:52.830Z,0.79
2023-04-15T21:49:19.679Z,0.70
2023-04-15T21:51:46.774Z,0.67
2023-04-15T21:54:15.333Z,0.62
2023-04-15T21:56:42.074Z,0.64
2023-04-15T21:59:08.844Z,0.64
2023-04-15T22:01:35.636Z,0.63
2023-04-15T22:04:02.560Z,0.61
2023-04-15T22:06:29.494Z,0.57
2023-04-15T22:09:11.252Z,0.61
2023-04-15T22:11:40.922Z,0.61
2023-04-15T22:14:07.656Z,0.56
2023-04-15T22:16:34.529Z,0.51
2023-04-15T22:19:01.481Z,0.36
2023-04-15T22:21:28.477Z,0.42
2023-04-15T22:24:32.544Z,0.44
2023-04-15T22:26:43.644Z,0.39
2023-04-15T22:29:10.416Z,0.42
2023-04-15T22:31:37.184Z,0.36
2023-04-15T22:34:03.941Z,0.31
2023-04-15T22:36:30.780Z,0.26
2023-04-15T22:38:57.641Z,0.28
2023-04-15T22:41:24.504Z,0.28
2023-04-15T22:43:52.584Z,0.15
2023-04-15T22:46:19.331Z,0.06
2023-04-15T22:48:46.074Z,0.12
2023-04-15T22:51:12.926Z,0.15
2023-04-15T22:53:39.688Z,0.21
2023-04-15T22:56:06.925Z,0.12
2023-04-15T22:58:33.628Z,0.03
2023-04-15T23:01:01.845Z,0.03
2023-04-15T23:03:28.786Z,0.02
2023-04-15T23:05:55.596Z,-0.02
2023-04-15T23:08:22.347Z,-0.13
2023-04-15T23:10:49.293Z,-0.10
2023-04-15T23:13:16.103Z,-0.01
2023-04-15T23:15:42.907Z,-0.03
2023-04-15T23:18:11.177Z,-0.08
2023-04-15T23:20:38.019Z,-0.03
2023-04-15T23:23:04.731Z,0.03
2023-04-15T23:25:31.507Z,-0.01
2023-04-15T23:27:58.240Z,-0.07
2023-04-15T23:30:24.958Z,-0.16
2023-04-15T23:32:51.692Z,-0.25
2023-04-15T23:35:19.885Z,-0.29
2023-04-15T23:37:46.747Z,-0.31
2023-04-15T23:40:13.937Z,-0.24
2023-04-15T23:42:40.778Z,-0.27
2023-04-15T23:45:08.893Z,-0.32
2023-04-15T23:47:35.790Z,-0.32
2023-04-15T23:50:02.681Z,-0.38
2023-04-15T23:52:30.796Z,-0.37
2023-04-15T23:54:57.658Z,-0.39
2023-04-15T23:57:24.383Z,-0.44
2023-04-15T23:59:51.103Z,-0.47
